.
WxDataArchive / Data Records for 2009-05-07
2009-05-06 May 2009 2009-05-08

Data Records for Thursday, 07 May 2009

Time	Temp	Chill	HIndex	Humid	Dewpt	 Wind 	HiWind	WindDir	Rain 	Barom 
-----	----	-----	------	-----	-----	------	------	-------	-----	----- 
00:00	50.2	50.2	50.2	93	48.3	0	0	---	0.00	29.835 
00:05	50.1	50.1	50.1	93	48.2	0	0	---	0.00	29.835 
00:10	49.8	49.8	49.8	93	47.9	0	0	---	0.00	29.835 
00:15	49.5	49.5	49.5	93	47.6	0	0	---	0.00	29.836 
00:20	49.4	49.4	49.4	94	47.7	0	0	---	0.00	29.836 
00:25	49.2	49.2	49.2	94	47.5	0	0	---	0.00	29.836 
00:30	49.1	49.1	49.1	93	47.2	0	0	---	0.00	29.839 
00:35	48.8	48.8	48.8	94	47.1	0	0	---	0.00	29.839 
00:40	48.6	48.6	48.6	94	47.0	0	0	---	0.00	29.839 
00:45	48.5	48.5	48.5	94	46.9	0	0	---	0.00	29.837 
00:50	48.3	48.3	48.3	94	46.7	0	0	---	0.00	29.837 
00:55	48.3	48.3	48.3	94	46.7	0	0	---	0.00	29.837 
01:00	48.3	48.3	48.3	94	46.7	0	0	---	0.00	29.835 
01:05	48.2	48.2	48.2	94	46.6	0	0	---	0.00	29.835 
01:10	48.0	48.0	48.0	94	46.4	0	0	---	0.00	29.835 
01:15	48.0	48.0	48.0	94	46.4	0	0	---	0.00	29.836 
01:20	47.9	47.9	47.9	94	46.3	0	0	---	0.00	29.836 
01:25	47.7	47.7	47.7	94	46.1	0	0	---	0.00	29.836 
01:30	47.6	47.6	47.6	94	46.0	0	0	---	0.00	29.834 
01:35	47.6	47.6	47.6	94	46.0	0	0	---	0.00	29.834 
01:40	47.4	47.4	47.4	95	46.0	0	0	---	0.00	29.834 
01:45	47.4	47.4	47.4	95	46.0	0	0	---	0.00	29.831 
01:50	47.3	47.3	47.3	95	45.9	0	0	---	0.00	29.831 
01:55	47.1	47.1	47.1	95	45.7	0	0	---	0.00	29.831 
02:00	47.0	47.0	47.0	95	45.6	0	0	---	0.00	29.829 
02:05	47.0	47.0	47.0	95	45.6	0	0	---	0.00	29.829 
02:10	46.8	46.8	46.8	95	45.4	0	0	---	0.00	29.829 
02:15	46.7	46.7	46.7	95	45.3	0	0	---	0.00	29.826 
02:20	46.7	46.7	46.7	95	45.3	0	0	---	0.00	29.826 
02:25	46.5	46.5	46.5	95	45.1	0	0	---	0.00	29.826 
02:30	46.4	46.4	46.4	95	45.0	0	0	---	0.00	29.828 
02:35	46.2	46.2	46.2	95	44.8	0	0	---	0.00	29.828 
02:40	46.1	46.1	46.1	95	44.7	0	0	---	0.00	29.828 
02:45	46.1	46.1	46.1	95	44.7	0	0	---	0.00	29.826 
02:50	46.0	46.0	46.0	95	44.6	0	0	---	0.00	29.826 
02:55	46.0	46.0	46.0	95	44.6	0	0	---	0.00	29.826 
03:00	45.8	45.8	45.8	95	44.4	0	0	---	0.00	29.819 
03:05	45.8	45.8	45.8	95	44.4	0	0	---	0.00	29.819 
03:10	45.8	45.8	45.8	95	44.4	0	0	---	0.00	29.819 
03:15	45.8	45.8	45.8	95	44.4	0	0	---	0.00	29.814 
03:20	45.8	45.8	45.8	95	44.4	0	0	---	0.00	29.814 
03:25	45.8	45.8	45.8	95	44.4	0	0	---	0.00	29.814 
03:30	45.8	45.8	45.8	96	44.7	0	0	---	0.00	29.811 
03:35	46.0	46.0	46.0	96	44.9	0	0	---	0.00	29.811 
03:40	46.0	46.0	46.0	96	44.9	0	0	---	0.00	29.811 
03:45	46.0	46.0	46.0	96	44.9	0	0	---	0.00	29.809 
03:50	46.1	46.1	46.1	96	45.0	0	0	---	0.00	29.809 
03:55	46.1	46.1	46.1	96	45.0	0	0	---	0.00	29.809 
04:00	46.2	46.2	46.2	96	45.1	0	0	---	0.00	29.803 
04:05	46.4	46.4	46.4	96	45.3	0	0	---	0.00	29.803 
04:10	46.4	46.4	46.4	96	45.3	0	0	---	0.00	29.803 
04:15	46.5	46.5	46.5	96	45.4	0	0	---	0.00	29.807 
04:20	46.5	46.5	46.5	96	45.4	0	0	---	0.00	29.807 
04:25	46.7	46.7	46.7	96	45.6	0	0	---	0.00	29.807 
04:30	47.0	47.0	47.0	96	45.9	0	0	---	0.00	29.807 
04:35	47.1	47.1	47.1	96	46.0	0	0	---	0.00	29.807 
04:40	47.3	47.3	47.3	96	46.2	0	0	---	0.00	29.807 
04:45	47.4	47.4	47.4	96	46.3	0	0	---	0.00	29.807 
04:50	47.6	47.6	47.6	96	46.5	0	0	---	0.00	29.807 
04:55	47.6	47.6	47.6	96	46.5	0	0	---	0.00	29.807 
05:00	47.7	47.7	47.7	96	46.6	0	0	---	0.00	29.802 
05:05	47.7	47.7	47.7	96	46.6	0	0	---	0.00	29.802 
05:10	47.7	47.7	47.7	96	46.6	0	0	---	0.00	29.802 
05:15	47.9	47.9	47.9	96	46.8	0	0	---	0.00	29.796 
05:20	47.9	47.9	47.9	96	46.8	0	0	---	0.00	29.796 
05:25	48.0	48.0	48.0	96	46.9	0	0	---	0.00	29.796 
05:30	48.0	48.0	48.0	96	46.9	0	0	---	0.00	29.795 
05:35	48.3	48.3	48.3	96	47.2	0	1	135	0.00	29.795 
05:40	48.5	48.5	48.5	97	47.7	0	1	135	0.00	29.795 
05:45	48.8	48.8	48.8	97	48.0	0	1	135	0.00	29.804 
05:50	49.1	49.1	49.1	97	48.3	0	0	---	0.00	29.804 
05:55	49.4	49.4	49.4	97	48.6	0	1	135	0.00	29.804 
06:00	49.6	49.6	49.6	97	48.8	0	0	---	0.00	29.806 
06:05	50.1	50.1	50.1	97	49.3	0	3	270	0.00	29.806 
06:10	50.5	50.5	50.5	97	49.7	0	1	270	0.00	29.806 
06:15	51.1	51.1	51.1	97	50.3	0	1	270	0.00	29.806 
06:20	51.6	51.6	51.6	97	50.8	0	1	270	0.00	29.806 
06:25	51.9	51.9	51.9	97	51.1	0	2	270	0.00	29.806 
06:30	52.2	52.2	52.2	97	51.4	0	1	270	0.00	29.806 
06:35	52.3	52.3	52.3	97	51.5	0	3	270	0.00	29.806 
06:40	52.5	52.5	52.5	97	51.7	1	3	248	0.00	29.806 
06:45	52.6	52.6	52.6	97	51.8	1	3	248	0.00	29.807 
06:50	52.8	52.8	52.8	97	52.0	1	3	248	0.00	29.807 
06:55	52.8	52.8	52.8	97	52.0	1	5	248	0.00	29.807 
07:00	52.8	52.8	52.8	97	52.0	0	3	248	0.00	29.809 
07:05	52.8	52.8	52.8	97	52.0	0	2	248	0.00	29.809 
07:10	52.8	52.8	52.8	97	52.0	1	3	248	0.00	29.809 
07:15	52.8	52.8	52.8	97	52.0	0	2	248	0.00	29.806 
07:20	52.9	52.9	52.9	97	52.1	0	2	248	0.00	29.806 
07:25	52.9	52.9	52.9	97	52.1	0	1	248	0.00	29.806 
07:30	53.1	53.1	53.1	97	52.3	0	1	248	0.00	29.806 
07:35	53.2	53.2	53.2	97	52.4	0	2	248	0.00	29.806 
07:40	53.3	53.3	53.3	97	52.5	0	1	248	0.00	29.806 
07:45	53.3	53.3	53.3	97	52.5	0	1	248	0.00	29.805 
07:50	53.5	53.5	53.5	97	52.7	0	1	248	0.00	29.805 
07:55	53.5	53.5	53.5	97	52.7	0	1	248	0.00	29.805 
08:00	53.6	53.6	53.6	97	52.8	0	1	248	0.00	29.804 
08:05	53.8	53.8	53.8	97	53.0	0	2	225	0.01	29.804 
08:10	53.9	53.9	53.9	97	53.1	0	1	225	0.00	29.804 
08:15	53.9	53.9	53.9	97	53.1	0	2	225	0.00	29.806 
08:20	54.1	54.1	54.1	97	53.3	0	2	225	0.00	29.806 
08:25	54.2	54.2	54.2	97	53.4	0	1	225	0.00	29.806 
08:30	54.5	54.5	54.5	97	53.7	0	1	225	0.00	29.806 
08:35	54.7	54.7	54.7	97	53.9	0	1	270	0.00	29.806 
08:40	55.0	55.0	55.0	97	54.2	0	2	270	0.00	29.806 
08:45	55.3	55.3	55.3	97	54.5	0	2	270	0.00	29.800 
08:50	55.6	55.6	55.6	97	54.8	1	3	270	0.00	29.800 
08:55	55.9	55.9	55.9	98	55.3	1	5	292	0.00	29.800 
09:00	56.0	56.0	56.0	98	55.4	0	2	292	0.00	29.798 
09:05	56.3	56.3	56.3	98	55.7	0	2	292	0.00	29.798 
09:10	56.5	56.5	56.5	98	55.9	0	3	292	0.00	29.798 
09:15	56.7	56.7	56.7	98	56.1	0	3	90	0.00	29.798 
09:20	57.0	57.0	57.0	98	56.4	0	1	158	0.00	29.798 
09:25	57.3	57.3	57.3	98	56.7	0	3	270	0.00	29.798 
09:30	57.6	57.6	57.6	98	57.0	0	3	270	0.00	29.803 
09:35	57.3	57.3	57.3	97	56.5	1	4	270	0.00	29.803 
09:40	57.5	57.5	57.5	97	56.7	1	3	270	0.00	29.803 
09:45	57.5	57.5	57.5	97	56.7	0	3	270	0.00	29.804 
09:50	57.5	57.5	57.5	97	56.7	1	3	270	0.00	29.804 
09:55	57.6	57.6	57.6	97	56.8	1	4	248	0.00	29.804 
10:00	58.0	58.0	58.0	97	57.2	1	4	248	0.00	29.806 
10:05	58.1	58.1	58.1	97	57.3	1	3	338	0.00	29.806 
10:10	58.1	58.1	58.1	97	57.3	2	6	248	0.00	29.806 
10:15	58.3	58.3	58.3	97	57.5	1	3	270	0.00	29.808 
10:20	58.3	58.3	58.3	97	57.5	1	4	270	0.00	29.808 
10:25	58.3	58.3	58.3	96	57.2	2	5	248	0.00	29.808 
10:30	58.4	58.4	58.4	96	57.3	1	3	270	0.00	29.812 
10:35	58.6	58.6	58.6	96	57.5	1	4	248	0.00	29.812 
10:40	58.4	58.4	58.4	96	57.3	1	3	248	0.00	29.812 
10:45	58.4	58.4	58.4	96	57.3	1	2	270	0.00	29.815 
10:50	58.3	58.3	58.3	95	56.9	1	3	248	0.00	29.815 
10:55	58.3	58.3	58.3	95	56.9	1	3	248	0.00	29.815 
11:00	58.3	58.3	58.3	95	56.9	1	5	270	0.00	29.823 
11:05	58.1	58.1	58.1	95	56.7	1	2	270	0.00	29.823 
11:10	58.1	58.1	58.1	95	56.7	1	2	270	0.00	29.823 
11:15	58.3	58.3	58.3	95	56.9	1	5	270	0.00	29.817 
11:20	58.4	58.4	58.4	95	57.0	2	4	292	0.00	29.817 
11:25	58.6	58.6	58.6	95	57.2	1	3	292	0.00	29.817 
11:30	58.7	58.7	58.7	94	57.0	1	4	292	0.00	29.813 
11:35	58.6	58.6	58.6	94	56.9	2	6	248	0.00	29.813 
11:40	58.6	58.6	58.6	94	56.9	2	7	248	0.00	29.813 
11:45	58.6	58.6	58.6	94	56.9	1	4	248	0.00	29.830 
11:50	58.6	58.6	58.6	93	56.6	2	6	270	0.00	29.830 
11:55	58.7	58.7	58.7	93	56.7	2	5	248	0.00	29.830 
12:00	58.7	58.7	58.7	93	56.7	3	6	292	0.00	29.823 
12:05	59.0	59.0	59.0	93	57.0	2	6	248	0.00	29.823 
12:10	59.3	59.3	59.3	93	57.3	1	4	270	0.00	29.823 
12:15	59.5	59.5	59.5	92	57.2	2	6	270	0.00	29.828 
12:20	59.5	59.5	59.5	92	57.2	2	9	270	0.00	29.828 
12:25	59.6	59.6	59.6	92	57.3	1	4	248	0.00	29.828 
12:30	59.8	59.8	59.8	92	57.5	1	4	248	0.00	29.827 
12:35	60.4	60.4	60.4	92	58.1	1	3	248	0.00	29.827 
12:40	61.0	61.0	61.0	91	58.4	2	5	270	0.00	29.827 
12:45	61.3	61.3	61.3	89	58.0	1	4	248	0.00	29.824 
12:50	61.3	61.3	61.3	88	57.7	1	4	248	0.00	29.824 
12:55	61.3	61.3	61.3	88	57.7	1	5	248	0.00	29.824 
13:00	61.6	61.6	61.6	88	58.0	1	3	225	0.00	29.819 
13:05	62.1	62.1	62.1	87	58.2	1	4	270	0.00	29.819 
13:10	62.9	62.9	62.9	87	59.0	1	3	270	0.00	29.819 
13:15	63.2	63.2	63.2	85	58.6	1	4	248	0.00	29.812 
13:20	63.5	63.5	63.5	84	58.6	1	3	248	0.00	29.812 
13:25	64.0	64.0	64.0	84	59.1	1	3	248	0.00	29.812 
13:30	64.2	64.2	64.2	82	58.6	1	5	270	0.00	29.809 
13:35	64.2	64.2	64.2	82	58.6	2	5	225	0.00	29.809 
13:40	64.0	64.0	64.0	81	58.0	2	6	270	0.00	29.809 
13:45	64.2	64.2	64.2	81	58.2	3	6	270	0.00	29.806 
13:50	64.7	64.7	64.7	82	59.1	2	6	292	0.00	29.806 
13:55	65.8	65.8	65.8	81	59.8	2	5	248	0.00	29.806 
14:00	66.8	66.8	66.8	79	60.1	2	5	248	0.00	29.801 
14:05	67.4	67.4	67.4	77	59.9	1	4	248	0.00	29.801 
14:10	67.6	67.6	67.6	75	59.4	2	6	270	0.00	29.801 
14:15	67.6	67.6	67.6	74	59.0	2	5	248	0.00	29.794 
14:20	67.8	67.8	67.8	77	60.3	1	5	248	0.00	29.794 
14:25	68.1	68.1	68.1	73	59.1	2	5	248	0.00	29.794 
14:30	68.8	68.8	68.8	73	59.8	2	7	270	0.00	29.787 
14:35	69.4	69.4	69.4	74	60.7	2	4	248	0.00	29.787 
14:40	69.6	69.6	69.6	68	58.6	2	7	270	0.00	29.787 
14:45	69.3	69.3	69.3	71	59.5	1	4	270	0.00	29.786 
14:50	69.6	69.6	69.6	69	59.0	2	5	248	0.00	29.786 
14:55	70.8	70.8	70.8	67	59.3	2	5	270	0.00	29.786 
15:00	71.6	71.6	71.6	66	59.6	1	4	248	0.00	29.777 
15:05	72.0	72.0	72.0	64	59.1	2	5	248	0.00	29.777 
15:10	72.1	72.1	72.1	61	57.9	3	6	248	0.00	29.777 
15:15	72.5	72.5	72.5	60	57.8	2	4	270	0.00	29.774 
15:20	72.7	72.7	72.7	59	57.5	2	5	248	0.00	29.774 
15:25	72.7	72.7	72.7	59	57.5	2	10	270	0.00	29.774 
15:30	72.1	72.1	72.1	59	57.0	1	4	248	0.00	29.768 
15:35	71.6	71.6	71.6	58	56.0	1	5	248	0.00	29.768 
15:40	71.3	71.3	71.3	59	56.2	2	7	270	0.00	29.768 
15:45	71.3	71.3	71.3	61	57.1	1	4	270	0.00	29.770 
15:50	72.0	72.0	72.0	60	57.3	2	6	248	0.00	29.770 
15:55	73.0	73.0	73.0	57	56.9	2	6	248	0.00	29.770 
16:00	74.0	74.0	74.0	57	57.8	2	5	248	0.00	29.765 
16:05	74.4	74.4	74.4	54	56.7	2	5	270	0.00	29.765 
16:10	74.9	74.9	74.9	55	57.6	2	5	248	0.00	29.765 
16:15	75.1	75.1	77.7	50	55.2	2	4	248	0.00	29.760 
16:20	75.1	75.1	77.7	51	55.7	2	5	270	0.00	29.760 
16:25	74.4	74.4	74.4	49	54.0	3	6	270	0.00	29.760 
16:30	74.0	74.0	74.0	50	54.2	2	5	248	0.00	29.761 
16:35	73.9	73.9	73.9	53	55.7	1	3	248	0.00	29.761 
16:40	73.9	73.9	73.9	51	54.6	2	5	248	0.00	29.761 
16:45	73.9	73.9	73.9	52	55.1	1	2	248	0.00	29.754 
16:50	73.7	73.7	73.7	52	55.0	0	3	248	0.00	29.754 
16:55	73.5	73.5	73.5	50	53.7	2	4	248	0.00	29.754 
17:00	73.5	73.5	73.5	49	53.2	1	3	248	0.00	29.758 
17:05	74.6	74.6	74.6	49	54.2	1	4	270	0.00	29.758 
17:10	74.9	74.9	74.9	47	53.3	3	7	270	0.00	29.758 
17:15	74.9	74.9	74.9	48	53.9	2	4	270	0.00	29.750 
17:20	75.1	75.1	77.7	46	52.9	1	5	248	0.00	29.750 
17:25	74.9	74.9	74.9	45	52.1	2	4	270	0.00	29.750 
17:30	75.1	75.1	77.6	44	51.7	1	4	270	0.00	29.751 
17:35	75.1	75.1	77.6	43	51.1	2	5	248	0.00	29.751 
17:40	74.7	74.7	74.7	49	54.3	2	5	248	0.00	29.751 
17:45	74.2	74.2	74.2	53	56.0	1	3	248	0.00	29.751 
17:50	73.7	73.7	73.7	53	55.5	2	6	248	0.00	29.751 
17:55	73.7	73.7	73.7	54	56.0	2	5	270	0.00	29.751 
18:00	73.3	73.3	73.3	52	54.6	3	5	270	0.00	29.757 
18:05	72.8	72.8	72.8	54	55.2	2	5	270	0.00	29.757 
18:10	72.1	72.1	72.1	56	55.5	2	5	248	0.00	29.757 
18:15	71.8	71.8	71.8	57	55.7	1	4	248	0.00	29.760 
18:20	71.6	71.6	71.6	58	56.0	1	4	248	0.00	29.760 
18:25	71.5	71.5	71.5	58	55.9	1	3	270	0.00	29.760 
18:30	71.5	71.5	71.5	58	55.9	2	5	270	0.00	29.755 
18:35	71.6	71.6	71.6	58	56.0	1	5	248	0.00	29.755 
18:40	71.5	71.5	71.5	58	55.9	2	5	270	0.00	29.755 
18:45	71.1	71.1	71.1	59	56.0	1	4	270	0.00	29.749 
18:50	71.1	71.1	71.1	61	57.0	0	2	248	0.00	29.749 
18:55	70.9	70.9	70.9	60	56.3	1	4	248	0.00	29.749 
19:00	70.8	70.8	70.8	60	56.2	1	5	248	0.00	29.747 
19:05	70.6	70.6	70.6	61	56.5	1	5	248	0.00	29.747 
19:10	70.4	70.4	70.4	61	56.3	1	3	248	0.00	29.747 
19:15	70.3	70.3	70.3	62	56.7	1	3	292	0.00	29.747 
19:20	70.1	70.1	70.1	62	56.5	0	3	248	0.00	29.747 
19:25	70.1	70.1	70.1	62	56.5	1	5	248	0.00	29.747 
19:30	70.1	70.1	70.1	63	56.9	1	4	270	0.00	29.746 
19:35	70.1	70.1	70.1	62	56.5	0	2	270	0.00	29.746 
19:40	70.1	70.1	70.1	63	56.9	0	0	---	0.00	29.746 
19:45	69.9	69.9	69.9	64	57.2	0	1	270	0.00	29.748 
19:50	69.8	69.8	69.8	64	57.1	0	1	270	0.00	29.748 
19:55	69.6	69.6	69.6	65	57.3	0	1	270	0.00	29.748 
20:00	69.6	69.6	69.6	65	57.3	0	1	270	0.00	29.751 
20:05	69.4	69.4	69.4	65	57.1	0	1	270	0.00	29.751 
20:10	69.3	69.3	69.3	66	57.4	0	1	270	0.00	29.751 
20:15	69.1	69.1	69.1	67	57.7	0	0	---	0.00	29.753 
20:20	68.8	68.8	68.8	68	57.8	0	1	270	0.00	29.753 
20:25	68.4	68.4	68.4	68	57.4	0	1	270	0.00	29.753 
20:30	68.3	68.3	68.3	68	57.3	0	1	270	0.00	29.758 
20:35	68.1	68.1	68.1	68	57.1	0	1	270	0.00	29.758 
20:40	68.1	68.1	68.1	68	57.1	0	2	270	0.00	29.758 
20:45	68.3	68.3	68.3	67	56.9	0	2	270	0.00	29.761 
20:50	68.3	68.3	68.3	68	57.3	0	1	270	0.00	29.761 
20:55	68.3	68.3	68.3	68	57.3	0	2	270	0.00	29.761 
21:00	68.3	68.3	68.3	69	57.7	0	1	270	0.00	29.764 
21:05	67.9	67.9	67.9	71	58.1	0	1	270	0.00	29.764 
21:10	67.4	67.4	67.4	72	58.1	1	3	248	0.01	29.764 
21:15	66.9	66.9	66.9	75	58.7	1	3	248	0.01	29.778 
21:20	65.2	65.2	65.2	73	56.3	4	10	270	0.00	29.778 
21:25	63.7	63.7	63.7	73	54.9	4	6	270	0.00	29.778 
21:30	63.1	63.1	63.1	74	54.7	2	6	270	0.00	29.794 
21:35	62.6	62.6	62.6	75	54.6	2	5	270	0.00	29.794 
21:40	62.3	62.3	62.3	75	54.3	2	5	315	0.00	29.794 
21:45	62.1	62.1	62.1	75	54.1	1	4	248	0.00	29.791 
21:50	62.0	62.0	62.0	76	54.3	0	1	0	0.00	29.791 
21:55	61.8	61.8	61.8	77	54.5	0	1	0	0.00	29.791 
22:00	61.6	61.6	61.6	77	54.3	0	1	0	0.00	29.792 
22:05	61.5	61.5	61.5	78	54.6	0	1	0	0.00	29.792 
22:10	61.3	61.3	61.3	78	54.4	0	1	0	0.00	29.792 
22:15	61.3	61.3	61.3	78	54.4	0	1	0	0.00	29.802 
22:20	61.3	61.3	61.3	79	54.7	0	0	---	0.00	29.802 
22:25	61.2	61.2	61.2	78	54.3	0	1	0	0.00	29.802 
22:30	61.2	61.2	61.2	78	54.3	0	1	0	0.00	29.802 
22:35	61.0	61.0	61.0	78	54.1	0	1	0	0.00	29.802 
22:40	61.0	61.0	61.0	79	54.4	0	1	0	0.00	29.802 
22:45	60.9	60.9	60.9	80	54.7	0	2	338	0.00	29.813 
22:50	60.9	60.9	60.9	81	55.0	1	4	248	0.00	29.813 
22:55	60.7	60.7	60.7	81	54.8	1	4	248	0.00	29.813 
23:00	60.5	60.5	60.5	79	54.0	1	4	248	0.00	29.815 
23:05	60.5	60.5	60.5	78	53.6	1	5	248	0.00	29.815 
23:10	60.4	60.4	60.4	78	53.5	1	3	270	0.00	29.815 
23:15	60.2	60.2	60.2	79	53.7	1	4	248	0.00	29.814 
23:20	60.1	60.1	60.1	80	53.9	0	2	248	0.00	29.814 
23:25	59.9	59.9	59.9	81	54.1	0	3	225	0.00	29.814 
23:30	59.8	59.8	59.8	81	54.0	0	3	248	0.00	29.810 
23:35	59.6	59.6	59.6	82	54.1	0	4	248	0.00	29.810 
23:40	59.5	59.5	59.5	83	54.3	0	3	248	0.00	29.810 
23:45	59.3	59.3	59.3	84	54.5	0	1	248	0.00	29.803 
23:50	59.2	59.2	59.2	85	54.7	0	3	22	0.00	29.803 
23:55	59.0	59.0	59.0	85	54.5	0	2	248	0.00	29.803 

CoCoRaHS
IN-AL-39
A2 Web Hosting
Creative Commons License
GoDaddy
search engine by freefind advanced

loaded 2018-11-17 23:38:02 • last modified 2010-11-18 10:43:29
Privacy PolicyDisclaimer
• wx.awcolley.com is powered by PmWiki v.2002016 •
• all content (unless otherwise noted) © 2018 A W Colley